createdAt,value
2017-04-23T00:00:13.278Z,50.60
2017-04-23T00:01:13.082Z,51.25
2017-04-23T00:02:13.179Z,51.41
2017-04-23T00:03:13.143Z,51.48
2017-04-23T00:04:13.014Z,51.49
2017-04-23T00:05:11.897Z,51.51
2017-04-23T00:06:12.977Z,51.54
2017-04-23T00:07:12.617Z,51.52
2017-04-23T00:08:13.194Z,51.52
2017-04-23T00:09:12.231Z,51.50
2017-04-23T00:10:12.432Z,51.50
2017-04-23T00:11:12.973Z,51.52
2017-04-23T00:12:12.810Z,51.50
2017-04-23T00:13:14.419Z,51.46
2017-04-23T00:14:11.533Z,51.33
2017-04-23T00:15:13.796Z,50.66
2017-04-23T00:16:13.768Z,50.52
2017-04-23T00:17:13.562Z,50.50
2017-04-23T00:18:12.855Z,50.37
2017-04-23T00:19:13.885Z,50.34
2017-04-23T00:20:13.918Z,50.30
2017-04-23T00:21:13.637Z,50.54
2017-04-23T00:22:13.290Z,51.07
2017-04-23T00:23:12.422Z,51.23
2017-04-23T00:24:12.673Z,51.30
2017-04-23T00:25:12.646Z,51.34
2017-04-23T00:26:12.635Z,51.36
2017-04-23T00:27:14.303Z,51.39
2017-04-23T00:28:13.012Z,51.36
2017-04-23T00:29:11.984Z,51.35
2017-04-23T00:30:12.708Z,51.37
2017-04-23T00:31:13.161Z,51.41
2017-04-23T00:32:12.347Z,51.41
2017-04-23T00:33:11.568Z,51.40
2017-04-23T00:34:13.429Z,51.40
2017-04-23T00:35:11.315Z,51.39
2017-04-23T00:36:12.433Z,51.37
2017-04-23T00:37:13.027Z,51.35
2017-04-23T00:38:10.779Z,51.34
2017-04-23T00:39:14.281Z,51.38
2017-04-23T00:40:12.816Z,51.37
2017-04-23T00:41:13.555Z,51.33
2017-04-23T00:42:13.169Z,51.38
2017-04-23T00:43:12.189Z,51.39
2017-04-23T00:44:13.491Z,51.34
2017-04-23T00:45:12.410Z,51.32
2017-04-23T00:46:13.095Z,51.36
2017-04-23T00:47:12.431Z,51.38
2017-04-23T00:48:12.460Z,51.34
2017-04-23T00:49:13.998Z,51.34
2017-04-23T00:50:12.594Z,51.35
2017-04-23T00:51:14.803Z,51.35
2017-04-23T00:52:13.676Z,51.34
2017-04-23T00:53:13.190Z,51.34
2017-04-23T00:54:12.252Z,51.34
2017-04-23T00:55:13.969Z,51.32
2017-04-23T00:56:12.639Z,51.32
2017-04-23T00:57:12.811Z,51.30
2017-04-23T00:58:12.788Z,51.31
2017-04-23T00:59:13.551Z,51.31
2017-04-23T01:00:13.175Z,51.30
2017-04-23T01:01:13.493Z,51.30
2017-04-23T01:02:16.890Z,51.29
2017-04-23T01:03:12.136Z,51.27
2017-04-23T01:04:13.635Z,51.26
2017-04-23T01:05:12.796Z,51.29
2017-04-23T01:06:15.893Z,51.28
2017-04-23T01:07:15.849Z,51.29
2017-04-23T01:08:14.673Z,51.30
2017-04-23T01:09:13.155Z,51.29
2017-04-23T01:10:13.057Z,51.28
2017-04-23T01:11:15.008Z,51.28
2017-04-23T01:12:12.989Z,51.28
2017-04-23T01:13:12.736Z,51.28
2017-04-23T01:14:14.246Z,51.28
2017-04-23T01:15:10.588Z,51.29
2017-04-23T01:16:13.517Z,51.27
2017-04-23T01:17:13.526Z,51.26
2017-04-23T01:18:13.123Z,51.23
2017-04-23T01:19:12.992Z,51.26
2017-04-23T01:20:13.315Z,51.23
2017-04-23T01:21:13.045Z,51.20
2017-04-23T01:22:12.665Z,51.23
2017-04-23T01:23:13.459Z,51.26
2017-04-23T01:24:12.457Z,51.23
2017-04-23T01:25:14.638Z,51.23
2017-04-23T01:26:13.436Z,51.23
2017-04-23T01:27:13.575Z,51.22
2017-04-23T01:28:13.786Z,51.21
2017-04-23T01:29:10.251Z,51.25
2017-04-23T01:30:12.573Z,51.24
2017-04-23T01:31:14.014Z,51.21
2017-04-23T01:32:09.946Z,51.23
2017-04-23T01:33:13.747Z,51.22
2017-04-23T01:34:14.235Z,51.22
2017-04-23T01:35:12.398Z,51.20
2017-04-23T01:36:13.263Z,51.20
2017-04-23T01:37:14.430Z,51.16
2017-04-23T01:38:13.053Z,51.21
2017-04-23T01:39:11.131Z,51.02
2017-04-23T01:40:12.958Z,50.40
2017-04-23T01:41:12.568Z,50.25
2017-04-23T01:42:13.615Z,50.15
2017-04-23T01:43:12.784Z,50.20
2017-04-23T01:44:13.313Z,50.06
2017-04-23T01:45:13.208Z,50.30
2017-04-23T01:46:12.537Z,50.87
2017-04-23T01:47:12.764Z,51.00
2017-04-23T01:48:13.767Z,51.05
2017-04-23T01:49:13.577Z,51.11
2017-04-23T01:50:14.438Z,51.14
2017-04-23T01:51:13.150Z,51.16
2017-04-23T01:52:12.924Z,51.16
2017-04-23T01:53:10.486Z,51.19
2017-04-23T01:54:13.163Z,51.18
2017-04-23T01:55:12.832Z,51.19
2017-04-23T01:56:14.701Z,51.19
2017-04-23T01:57:14.245Z,51.21
2017-04-23T01:58:12.946Z,51.21
2017-04-23T01:59:13.190Z,51.19
2017-04-23T02:00:12.224Z,51.20
2017-04-23T02:01:12.857Z,51.18
2017-04-23T02:02:14.785Z,51.18
2017-04-23T02:03:13.702Z,51.19
2017-04-23T02:04:13.468Z,51.20
2017-04-23T02:05:13.167Z,51.19
2017-04-23T02:06:12.237Z,51.19
2017-04-23T02:07:11.217Z,51.21
2017-04-23T02:08:12.241Z,51.22
2017-04-23T02:09:13.175Z,51.18
2017-04-23T02:10:12.194Z,51.19
2017-04-23T02:11:13.691Z,51.19
2017-04-23T02:12:15.242Z,51.18
2017-04-23T02:13:13.328Z,51.16
2017-04-23T02:14:12.803Z,51.17
2017-04-23T02:15:13.419Z,51.20
2017-04-23T02:16:11.569Z,51.21
2017-04-23T02:17:13.499Z,51.05
2017-04-23T02:18:13.882Z,51.18
2017-04-23T02:19:13.701Z,51.18
2017-04-23T02:20:13.781Z,51.18
2017-04-23T02:21:13.212Z,51.22
2017-04-23T02:22:12.448Z,51.18
2017-04-23T02:23:13.225Z,51.19
2017-04-23T02:24:13.465Z,51.20
2017-04-23T02:25:12.602Z,51.21
2017-04-23T02:26:15.126Z,51.20
2017-04-23T02:27:12.825Z,51.20
2017-04-23T02:28:13.706Z,51.17
2017-04-23T02:29:14.426Z,51.17
2017-04-23T02:30:13.453Z,51.18
2017-04-23T02:31:12.406Z,51.17
2017-04-23T02:32:12.670Z,51.18
2017-04-23T02:33:13.641Z,51.15
2017-04-23T02:34:12.585Z,51.18
2017-04-23T02:35:12.744Z,51.16
2017-04-23T02:36:13.848Z,51.17
2017-04-23T02:37:14.448Z,51.16
2017-04-23T02:38:12.385Z,51.18
2017-04-23T02:39:14.311Z,51.18
2017-04-23T02:40:12.745Z,51.17
2017-04-23T02:41:13.792Z,51.15
2017-04-23T02:42:13.758Z,51.16
2017-04-23T02:43:13.567Z,51.13
2017-04-23T02:44:12.497Z,51.15
2017-04-23T02:45:09.691Z,51.18
2017-04-23T02:46:13.762Z,51.18
2017-04-23T02:47:14.615Z,51.18
2017-04-23T02:48:13.218Z,51.16
2017-04-23T02:49:12.405Z,51.16
2017-04-23T02:50:13.640Z,51.17
2017-04-23T02:51:12.764Z,51.16
2017-04-23T02:52:14.390Z,51.14
2017-04-23T02:53:14.095Z,51.14
2017-04-23T02:54:12.617Z,51.16
2017-04-23T02:55:13.743Z,51.15
2017-04-23T02:56:13.180Z,51.15
2017-04-23T02:57:12.938Z,51.12
2017-04-23T02:58:12.235Z,51.13
2017-04-23T02:59:13.166Z,51.03
2017-04-23T03:00:12.380Z,50.36
2017-04-23T03:01:12.394Z,50.40
2017-04-23T03:02:12.521Z,50.92
2017-04-23T03:03:13.036Z,51.01
2017-04-23T03:04:12.022Z,51.04
2017-04-23T03:05:13.513Z,51.05
2017-04-23T03:06:13.355Z,51.16
2017-04-23T03:07:13.226Z,51.21
2017-04-23T03:08:12.357Z,51.26
2017-04-23T03:09:14.364Z,51.44
2017-04-23T03:10:13.172Z,51.57
2017-04-23T03:11:12.948Z,51.66
2017-04-23T03:12:12.167Z,52.01
2017-04-23T03:13:12.734Z,51.70
2017-04-23T03:14:14.091Z,51.99
2017-04-23T03:15:11.193Z,51.95
2017-04-23T03:16:13.757Z,51.33
2017-04-23T03:17:11.594Z,51.18
2017-04-23T03:18:12.993Z,51.27
2017-04-23T03:19:14.512Z,51.31
2017-04-23T03:20:13.166Z,51.93
2017-04-23T03:21:14.897Z,52.00
2017-04-23T03:22:15.040Z,52.19
2017-04-23T03:23:12.794Z,52.17
2017-04-23T03:24:11.617Z,52.30
2017-04-23T03:25:13.095Z,52.22
2017-04-23T03:26:10.419Z,52.23
2017-04-23T03:27:13.089Z,51.59
2017-04-23T03:28:12.226Z,51.36
2017-04-23T03:29:14.219Z,51.38
2017-04-23T03:30:12.386Z,51.38
2017-04-23T03:31:12.406Z,51.23
2017-04-23T03:32:12.578Z,51.37
2017-04-23T03:33:15.872Z,51.32
2017-04-23T03:34:13.888Z,51.32
2017-04-23T03:35:13.419Z,51.43
2017-04-23T03:36:12.424Z,51.64
2017-04-23T03:37:13.584Z,52.39
2017-04-23T03:38:12.578Z,52.17
2017-04-23T03:39:12.712Z,52.39
2017-04-23T03:40:13.292Z,52.69
2017-04-23T03:41:11.335Z,52.77
2017-04-23T03:42:13.156Z,52.76
2017-04-23T03:43:12.982Z,52.60
2017-04-23T03:44:13.307Z,52.57
2017-04-23T03:45:13.094Z,52.53
2017-04-23T03:46:11.005Z,52.51
2017-04-23T03:47:13.677Z,52.53
2017-04-23T03:48:13.201Z,52.67
2017-04-23T03:49:12.640Z,52.63
2017-04-23T03:50:13.127Z,52.76
2017-04-23T03:51:12.210Z,52.71
2017-04-23T03:52:12.791Z,52.62
2017-04-23T03:53:13.491Z,52.61
2017-04-23T03:54:12.559Z,52.57
2017-04-23T03:55:13.687Z,52.65
2017-04-23T03:56:14.177Z,53.01
2017-04-23T03:57:13.029Z,52.78
2017-04-23T03:58:12.855Z,52.78
2017-04-23T03:59:12.995Z,52.73
2017-04-23T04:00:12.218Z,52.91
2017-04-23T04:01:12.806Z,52.62
2017-04-23T04:02:12.857Z,52.57
2017-04-23T04:03:14.122Z,52.79
2017-04-23T04:04:12.252Z,52.79
2017-04-23T04:05:14.112Z,52.79
2017-04-23T04:06:12.685Z,52.72
2017-04-23T04:07:13.123Z,52.98
2017-04-23T04:08:13.784Z,52.77
2017-04-23T04:09:13.383Z,52.91
2017-04-23T04:10:14.037Z,52.94
2017-04-23T04:11:12.291Z,52.92
2017-04-23T04:12:12.439Z,52.95
2017-04-23T04:13:12.511Z,52.87
2017-04-23T04:14:14.243Z,53.13
2017-04-23T04:15:12.237Z,52.91
2017-04-23T04:16:13.007Z,52.86
2017-04-23T04:17:12.976Z,52.91
2017-04-23T04:18:12.762Z,53.04
2017-04-23T04:19:14.044Z,53.01
2017-04-23T04:20:13.784Z,53.14
2017-04-23T04:21:12.924Z,53.00
2017-04-23T04:22:13.837Z,52.88
2017-04-23T04:23:13.807Z,52.96
2017-04-23T04:24:14.516Z,52.91
2017-04-23T04:25:17.321Z,53.13
2017-04-23T04:26:13.471Z,52.98
2017-04-23T04:27:14.437Z,53.10
2017-04-23T04:28:12.427Z,53.00
2017-04-23T04:29:12.405Z,52.91
2017-04-23T04:30:15.110Z,52.86
2017-04-23T04:31:13.834Z,52.84
2017-04-23T04:32:13.723Z,52.94
2017-04-23T04:33:14.264Z,53.06
2017-04-23T04:34:12.966Z,53.01
2017-04-23T04:35:11.986Z,52.94
2017-04-23T04:36:12.243Z,53.09
2017-04-23T04:37:13.103Z,52.90
2017-04-23T04:38:13.492Z,52.94
2017-04-23T04:39:12.486Z,52.94
2017-04-23T04:40:11.321Z,52.97
2017-04-23T04:41:12.952Z,53.02
2017-04-23T04:42:14.016Z,52.96
2017-04-23T04:43:13.927Z,52.97
2017-04-23T04:44:13.753Z,52.79
2017-04-23T04:45:12.787Z,53.06
2017-04-23T04:46:12.958Z,52.97
2017-04-23T04:47:11.050Z,52.98
2017-04-23T04:48:12.459Z,52.99
2017-04-23T04:49:12.505Z,52.92
2017-04-23T04:50:18.776Z,52.97
2017-04-23T04:51:12.787Z,53.03
2017-04-23T04:52:13.577Z,52.99
2017-04-23T04:53:12.801Z,52.97
2017-04-23T04:54:13.077Z,52.93
2017-04-23T04:55:12.720Z,52.90
2017-04-23T04:56:12.763Z,52.97
2017-04-23T04:57:13.508Z,52.95
2017-04-23T04:58:12.759Z,52.92
2017-04-23T04:59:10.833Z,53.06
2017-04-23T05:00:10.344Z,52.19
2017-04-23T05:01:12.536Z,51.94
2017-04-23T05:02:12.514Z,52.74
2017-04-23T05:03:12.588Z,52.94
2017-04-23T05:04:13.295Z,52.97
2017-04-23T05:05:12.361Z,53.02
2017-04-23T05:06:13.019Z,52.79
2017-04-23T05:07:12.228Z,53.05
2017-04-23T05:08:12.406Z,53.06
2017-04-23T05:09:13.198Z,53.07
2017-04-23T05:10:12.355Z,52.95
2017-04-23T05:11:12.516Z,52.96
2017-04-23T05:12:13.591Z,52.94
2017-04-23T05:13:12.571Z,53.06
2017-04-23T05:14:12.860Z,53.03
2017-04-23T05:15:13.813Z,52.97
2017-04-23T05:16:13.761Z,52.91
2017-04-23T05:17:14.476Z,52.96
2017-04-23T05:18:14.174Z,52.95
2017-04-23T05:19:12.914Z,53.11
2017-04-23T05:20:14.189Z,53.01
2017-04-23T05:21:12.290Z,53.07
2017-04-23T05:22:12.226Z,53.04
2017-04-23T05:23:15.133Z,53.00
2017-04-23T05:24:13.876Z,53.01
2017-04-23T05:25:13.385Z,53.18
2017-04-23T05:26:13.360Z,53.05
2017-04-23T05:27:13.934Z,53.15
2017-04-23T05:28:13.888Z,53.09
2017-04-23T05:29:13.750Z,53.16
2017-04-23T05:30:13.165Z,53.03
2017-04-23T05:31:12.945Z,53.00
2017-04-23T05:32:12.741Z,53.16
2017-04-23T05:33:13.992Z,53.14
2017-04-23T05:34:12.060Z,53.13
2017-04-23T05:35:12.149Z,53.03
2017-04-23T05:36:13.227Z,53.08
2017-04-23T05:37:14.212Z,53.11
2017-04-23T05:38:11.389Z,52.87
2017-04-23T05:39:11.756Z,53.10
2017-04-23T05:40:13.282Z,52.15
2017-04-23T05:41:14.112Z,52.03
2017-04-23T05:42:11.055Z,51.91
2017-04-23T05:43:12.902Z,52.21
2017-04-23T05:44:12.032Z,52.76
2017-04-23T05:45:12.021Z,52.91
2017-04-23T05:46:15.070Z,53.00
2017-04-23T05:47:12.970Z,52.98
2017-04-23T05:48:12.622Z,52.97
2017-04-23T05:49:12.817Z,52.92
2017-04-23T05:50:14.097Z,52.97
2017-04-23T05:51:12.660Z,53.08
2017-04-23T05:52:12.768Z,53.13
2017-04-23T05:53:13.791Z,53.09
2017-04-23T05:54:12.802Z,52.98
2017-04-23T05:55:12.961Z,52.97
2017-04-23T05:56:12.405Z,53.06
2017-04-23T05:57:13.270Z,53.16
2017-04-23T05:58:12.457Z,53.08
2017-04-23T05:59:13.916Z,53.15
2017-04-23T06:00:13.167Z,53.11
2017-04-23T06:01:12.829Z,53.13
2017-04-23T06:02:13.421Z,53.10
2017-04-23T06:03:12.974Z,53.00
2017-04-23T06:04:12.708Z,53.09
2017-04-23T06:05:14.274Z,53.26
2017-04-23T06:06:11.291Z,53.06
2017-04-23T06:07:13.137Z,52.19
2017-04-23T06:08:12.287Z,52.11
2017-04-23T06:09:11.310Z,52.05
2017-04-23T06:10:13.268Z,51.98
2017-04-23T06:11:12.222Z,52.05
2017-04-23T06:12:12.969Z,52.81
2017-04-23T06:13:11.956Z,52.88
2017-04-23T06:14:13.728Z,53.01
2017-04-23T06:15:10.802Z,52.98
2017-04-23T06:16:12.101Z,52.27
2017-04-23T06:17:14.175Z,52.12
2017-04-23T06:18:12.923Z,52.00
2017-04-23T06:19:12.983Z,52.16
2017-04-23T06:20:13.911Z,52.80
2017-04-23T06:21:12.027Z,53.01
2017-04-23T06:22:12.945Z,53.14
2017-04-23T06:23:12.772Z,53.14
2017-04-23T06:24:13.628Z,53.18
2017-04-23T06:25:12.940Z,53.11
2017-04-23T06:26:11.895Z,53.09
2017-04-23T06:27:12.919Z,53.05
2017-04-23T06:28:12.971Z,53.07
2017-04-23T06:29:12.069Z,53.11
2017-04-23T06:30:12.608Z,53.03
2017-04-23T06:31:14.500Z,53.17
2017-04-23T06:32:12.719Z,53.29
2017-04-23T06:33:11.468Z,53.23
2017-04-23T06:34:12.849Z,53.14
2017-04-23T06:35:11.230Z,53.17
2017-04-23T06:36:12.354Z,53.10
2017-04-23T06:37:10.226Z,53.22
2017-04-23T06:38:13.168Z,53.19
2017-04-23T06:39:23.213Z,53.20
2017-04-23T06:40:12.400Z,53.26
2017-04-23T06:41:13.709Z,53.24
2017-04-23T06:42:13.374Z,53.24
2017-04-23T06:43:10.744Z,53.18
2017-04-23T06:44:12.156Z,52.27
2017-04-23T06:45:14.088Z,52.44
2017-04-23T06:46:12.820Z,53.04
2017-04-23T06:47:13.092Z,53.04
2017-04-23T06:48:13.939Z,53.08
2017-04-23T06:49:12.562Z,53.14
2017-04-23T06:50:13.157Z,53.21
2017-04-23T06:51:14.281Z,53.10
2017-04-23T06:52:12.428Z,53.08
2017-04-23T06:53:13.220Z,53.17
2017-04-23T06:54:12.296Z,53.22
2017-04-23T06:55:13.211Z,53.14
2017-04-23T06:56:12.228Z,53.08
2017-04-23T06:57:14.061Z,53.13
2017-04-23T06:58:12.665Z,53.20
2017-04-23T06:59:12.805Z,53.10
2017-04-23T07:00:13.473Z,53.13
2017-04-23T07:01:13.122Z,53.19
2017-04-23T07:02:12.748Z,53.21
2017-04-23T07:03:13.323Z,53.16
2017-04-23T07:04:11.181Z,52.93
2017-04-23T07:05:12.444Z,52.28
2017-04-23T07:06:12.493Z,52.20
2017-04-23T07:07:16.199Z,52.99
2017-04-23T07:08:12.189Z,53.14
2017-04-23T07:09:12.855Z,53.18
2017-04-23T07:10:13.450Z,53.19
2017-04-23T07:11:12.399Z,53.11
2017-04-23T07:12:12.458Z,53.15
2017-04-23T07:13:13.137Z,53.24
2017-04-23T07:14:12.941Z,53.29
2017-04-23T07:15:11.858Z,53.18
2017-04-23T07:16:12.965Z,53.23
2017-04-23T07:17:12.866Z,53.18
2017-04-23T07:18:13.374Z,53.15
2017-04-23T07:19:13.045Z,52.32
2017-04-23T07:20:11.830Z,52.43
2017-04-23T07:21:13.497Z,53.02
2017-04-23T07:22:10.575Z,53.06
2017-04-23T07:23:13.192Z,53.07
2017-04-23T07:24:12.923Z,53.25
2017-04-23T07:25:13.765Z,53.09
2017-04-23T07:26:12.746Z,53.08
2017-04-23T07:27:14.932Z,53.23
2017-04-23T07:28:11.031Z,53.17
2017-04-23T07:29:12.585Z,53.19
2017-04-23T07:30:11.523Z,53.06
2017-04-23T07:31:11.443Z,53.13
2017-04-23T07:32:13.155Z,52.29
2017-04-23T07:33:12.349Z,52.09
2017-04-23T07:34:12.412Z,52.06
2017-04-23T07:35:13.172Z,52.01
2017-04-23T07:36:12.780Z,52.03
2017-04-23T07:37:14.317Z,52.16
2017-04-23T07:38:12.407Z,52.76
2017-04-23T07:39:12.430Z,52.90
2017-04-23T07:40:13.212Z,52.97
2017-04-23T07:41:11.368Z,53.10
2017-04-23T07:42:12.247Z,53.06
2017-04-23T07:43:12.259Z,53.08
2017-04-23T07:44:12.338Z,53.28
2017-04-23T07:45:13.146Z,53.08
2017-04-23T07:46:12.565Z,53.02
2017-04-23T07:47:15.269Z,53.11
2017-04-23T07:48:13.998Z,53.14
2017-04-23T07:49:12.211Z,53.15
2017-04-23T07:50:14.027Z,52.99
2017-04-23T07:51:12.794Z,52.24
2017-04-23T07:52:11.751Z,52.22
2017-04-23T07:53:12.704Z,52.85
2017-04-23T07:54:13.543Z,53.08
2017-04-23T07:55:13.124Z,53.06
2017-04-23T07:56:12.373Z,53.10
2017-04-23T07:57:12.949Z,53.11
2017-04-23T07:58:12.634Z,53.18
2017-04-23T07:59:12.690Z,53.12
2017-04-23T08:00:13.528Z,53.13
2017-04-23T08:01:13.251Z,53.17
2017-04-23T08:02:11.128Z,53.13
2017-04-23T08:03:11.326Z,53.06
2017-04-23T08:04:14.214Z,52.41
2017-04-23T08:05:12.358Z,52.23
2017-04-23T08:06:12.587Z,52.10
2017-04-23T08:07:13.410Z,52.04
2017-04-23T08:08:12.391Z,52.81
2017-04-23T08:09:12.940Z,52.96
2017-04-23T08:10:12.126Z,53.16
2017-04-23T08:11:12.849Z,53.09
2017-04-23T08:12:13.070Z,53.15
2017-04-23T08:13:13.879Z,53.13
2017-04-23T08:14:11.953Z,53.01
2017-04-23T08:15:10.124Z,52.41
2017-04-23T08:16:12.778Z,52.24
2017-04-23T08:17:13.168Z,53.10
2017-04-23T08:18:12.260Z,53.04
2017-04-23T08:19:11.046Z,53.10
2017-04-23T08:20:13.208Z,53.16
2017-04-23T08:21:12.972Z,53.16
2017-04-23T08:22:11.974Z,53.25
2017-04-23T08:23:13.835Z,53.06
2017-04-23T08:24:13.606Z,53.16
2017-04-23T08:25:13.418Z,53.29
2017-04-23T08:26:12.952Z,53.14
2017-04-23T08:27:12.199Z,53.24
2017-04-23T08:28:12.415Z,53.06
2017-04-23T08:29:11.221Z,53.20
2017-04-23T08:30:12.464Z,53.23
2017-04-23T08:31:14.962Z,53.20
2017-04-23T08:32:13.579Z,53.32
2017-04-23T08:33:12.671Z,53.23
2017-04-23T08:34:13.965Z,53.19
2017-04-23T08:35:11.978Z,53.24
2017-04-23T08:36:13.916Z,53.13
2017-04-23T08:37:12.109Z,52.64
2017-04-23T08:38:13.133Z,53.05
2017-04-23T08:39:12.217Z,53.22
2017-04-23T08:40:11.236Z,53.15
2017-04-23T08:41:13.129Z,53.27
2017-04-23T08:42:13.137Z,53.22
2017-04-23T08:43:12.165Z,53.19
2017-04-23T08:44:11.033Z,53.13
2017-04-23T08:45:13.052Z,53.22
2017-04-23T08:46:12.513Z,53.38
2017-04-23T08:47:13.240Z,53.69
2017-04-23T08:48:12.374Z,54.05
2017-04-23T08:49:12.392Z,54.42
2017-04-23T08:50:13.172Z,56.45
2017-04-23T08:51:12.822Z,55.85
2017-04-23T08:52:12.989Z,55.38
2017-04-23T08:53:12.552Z,55.48
2017-04-23T08:54:11.303Z,55.61
2017-04-23T08:55:13.326Z,56.37
2017-04-23T08:56:11.225Z,55.65
2017-04-23T08:57:12.909Z,56.04
2017-04-23T08:58:12.973Z,55.87
2017-04-23T08:59:10.182Z,55.51
2017-04-23T09:00:12.578Z,55.57
2017-04-23T09:01:11.454Z,55.82
2017-04-23T09:02:13.491Z,54.56
2017-04-23T09:03:10.221Z,54.43
2017-04-23T09:04:13.870Z,54.53
2017-04-23T09:05:13.029Z,54.47
2017-04-23T09:06:12.959Z,54.49
2017-04-23T09:07:11.847Z,55.00
2017-04-23T09:08:11.736Z,54.94
2017-04-23T09:09:13.213Z,55.01
2017-04-23T09:10:12.449Z,55.05
2017-04-23T09:11:13.396Z,55.21
2017-04-23T09:12:13.106Z,55.17
2017-04-23T09:13:13.577Z,55.17
2017-04-23T09:14:12.738Z,54.48
2017-04-23T09:15:13.790Z,54.11
2017-04-23T09:16:12.945Z,54.23
2017-04-23T09:17:12.792Z,54.22
2017-04-23T09:18:12.970Z,54.40
2017-04-23T09:19:12.489Z,54.35
2017-04-23T09:20:14.269Z,54.38
2017-04-23T09:21:12.545Z,53.99
2017-04-23T09:22:11.709Z,54.25
2017-04-23T09:23:12.665Z,54.25
2017-04-23T09:24:14.203Z,54.21
2017-04-23T09:25:12.631Z,54.14
2017-04-23T09:26:13.169Z,53.97
2017-04-23T09:27:11.110Z,53.92
2017-04-23T09:28:12.235Z,53.77
2017-04-23T09:29:13.052Z,53.68
2017-04-23T09:30:12.755Z,53.47
2017-04-23T09:31:12.838Z,53.20
2017-04-23T09:32:14.596Z,53.26
2017-04-23T09:33:12.944Z,53.17
2017-04-23T09:34:11.093Z,53.17
2017-04-23T09:35:13.823Z,53.24
2017-04-23T09:36:13.365Z,53.30
2017-04-23T09:37:13.521Z,53.22
2017-04-23T09:38:12.581Z,52.85
2017-04-23T09:39:10.809Z,53.06
2017-04-23T09:40:12.638Z,52.77
2017-04-23T09:41:12.626Z,53.09
2017-04-23T09:42:12.725Z,53.03
2017-04-23T09:43:13.314Z,52.99
2017-04-23T09:44:11.618Z,52.31
2017-04-23T09:45:13.173Z,52.13
2017-04-23T09:46:12.228Z,51.98
2017-04-23T09:47:13.025Z,51.97
2017-04-23T09:48:14.758Z,51.94
2017-04-23T09:49:13.074Z,51.90
2017-04-23T09:50:12.836Z,51.95
2017-04-23T09:51:13.522Z,52.50
2017-04-23T09:52:12.566Z,52.71
2017-04-23T09:53:13.137Z,52.81
2017-04-23T09:54:12.189Z,52.88
2017-04-23T09:55:13.183Z,52.85
2017-04-23T09:56:13.218Z,52.91
2017-04-23T09:57:12.801Z,52.97
2017-04-23T09:58:12.803Z,52.91
2017-04-23T09:59:13.410Z,52.87
2017-04-23T10:00:13.241Z,52.86
2017-04-23T10:01:14.208Z,52.81
2017-04-23T10:02:13.054Z,52.78
2017-04-23T10:03:12.775Z,52.79
2017-04-23T10:04:12.742Z,52.74
2017-04-23T10:05:12.998Z,52.67
2017-04-23T10:06:13.759Z,52.59
2017-04-23T10:07:13.685Z,52.63
2017-04-23T10:08:14.292Z,52.58
2017-04-23T10:09:12.398Z,52.57
2017-04-23T10:10:11.982Z,52.54
2017-04-23T10:11:13.044Z,52.50
2017-04-23T10:12:12.045Z,52.44
2017-04-23T10:13:12.975Z,52.43
2017-04-23T10:14:23.051Z,52.38
2017-04-23T10:15:12.776Z,52.31
2017-04-23T10:16:13.414Z,52.29
2017-04-23T10:17:12.804Z,52.32
2017-04-23T10:18:14.813Z,52.28
2017-04-23T10:19:13.563Z,52.22
2017-04-23T10:20:12.649Z,52.21
2017-04-23T10:21:13.593Z,52.15
2017-04-23T10:22:12.592Z,52.16
2017-04-23T10:23:12.617Z,52.14
2017-04-23T10:24:12.001Z,52.11
2017-04-23T10:25:12.991Z,52.13
2017-04-23T10:26:17.829Z,52.09
2017-04-23T10:27:13.617Z,52.05
2017-04-23T10:28:13.235Z,52.07
2017-04-23T10:29:12.302Z,52.06
2017-04-23T10:30:14.836Z,52.07
2017-04-23T10:31:10.585Z,52.06
2017-04-23T10:32:14.097Z,52.04
2017-04-23T10:33:12.588Z,52.05
2017-04-23T10:34:13.550Z,52.05
2017-04-23T10:35:13.062Z,52.03
2017-04-23T10:36:12.007Z,52.02
2017-04-23T10:37:12.790Z,52.02
2017-04-23T10:38:13.500Z,51.93
2017-04-23T10:39:12.590Z,51.22
2017-04-23T10:40:12.789Z,50.96
2017-04-23T10:41:13.901Z,50.96
2017-04-23T10:42:13.657Z,51.06
2017-04-23T10:43:12.849Z,51.72
2017-04-23T10:44:13.672Z,51.86
2017-04-23T10:45:12.915Z,51.91
2017-04-23T10:46:13.550Z,51.97
2017-04-23T10:47:14.361Z,51.95
2017-04-23T10:48:09.724Z,51.98
2017-04-23T10:49:13.169Z,51.96
2017-04-23T10:50:12.977Z,51.97
2017-04-23T10:51:13.558Z,51.95
2017-04-23T10:52:13.195Z,51.82
2017-04-23T10:53:12.929Z,51.10
2017-04-23T10:54:14.073Z,50.94
2017-04-23T10:55:12.650Z,50.79
2017-04-23T10:56:13.256Z,50.74
2017-04-23T10:57:12.242Z,50.93
2017-04-23T10:58:12.299Z,51.53
2017-04-23T10:59:13.838Z,51.64
2017-04-23T11:00:12.988Z,51.69
2017-04-23T11:01:12.030Z,51.72
2017-04-23T11:02:12.226Z,51.72
2017-04-23T11:03:12.417Z,51.73
2017-04-23T11:04:13.021Z,51.72
2017-04-23T11:05:11.960Z,51.70
2017-04-23T11:06:11.919Z,51.67
2017-04-23T11:07:11.933Z,51.65
2017-04-23T11:08:11.960Z,51.64
2017-04-23T11:09:13.790Z,51.64
2017-04-23T11:10:13.188Z,51.60
2017-04-23T11:11:12.222Z,51.60
2017-04-23T11:12:12.536Z,51.60
2017-04-23T11:13:13.108Z,51.59
2017-04-23T11:14:12.251Z,51.56
2017-04-23T11:15:13.882Z,51.56
2017-04-23T11:16:14.587Z,51.58
2017-04-23T11:17:12.891Z,51.59
2017-04-23T11:18:13.003Z,51.59
2017-04-23T11:19:11.865Z,51.66
2017-04-23T11:20:15.361Z,51.65
2017-04-23T11:21:13.483Z,51.72
2017-04-23T11:22:12.616Z,51.84
2017-04-23T11:23:14.380Z,51.86
2017-04-23T11:24:12.361Z,51.89
2017-04-23T11:25:15.415Z,51.95
2017-04-23T11:26:12.940Z,51.93
2017-04-23T11:27:12.760Z,51.76
2017-04-23T11:28:14.791Z,51.08
2017-04-23T11:29:12.799Z,50.95
2017-04-23T11:30:10.806Z,50.87
2017-04-23T11:31:12.030Z,50.79
2017-04-23T11:32:12.245Z,50.78
2017-04-23T11:33:12.783Z,50.91
2017-04-23T11:34:12.884Z,51.61
2017-04-23T11:35:12.940Z,51.73
2017-04-23T11:36:11.926Z,51.81
2017-04-23T11:37:13.964Z,51.90
2017-04-23T11:38:12.789Z,51.94
2017-04-23T11:39:10.069Z,51.93
2017-04-23T11:40:12.240Z,51.95
2017-04-23T11:41:12.950Z,52.00
2017-04-23T11:42:11.960Z,51.97
2017-04-23T11:43:12.237Z,51.99
2017-04-23T11:44:14.128Z,51.99
2017-04-23T11:45:12.231Z,52.00
2017-04-23T11:46:11.354Z,51.98
2017-04-23T11:47:13.481Z,51.20
2017-04-23T11:48:12.470Z,51.03
2017-04-23T11:49:12.600Z,50.97
2017-04-23T11:50:12.717Z,50.91
2017-04-23T11:51:12.669Z,50.86
2017-04-23T11:52:12.590Z,51.66
2017-04-23T11:53:12.692Z,51.78
2017-04-23T11:54:13.548Z,51.87
2017-04-23T11:55:12.943Z,51.90
2017-04-23T11:56:12.001Z,51.90
2017-04-23T11:57:12.184Z,51.91
2017-04-23T11:58:13.851Z,51.90
2017-04-23T11:59:13.573Z,51.85
2017-04-23T12:00:14.141Z,51.83
2017-04-23T12:01:12.243Z,51.82
2017-04-23T12:02:12.029Z,51.82
2017-04-23T12:03:12.244Z,51.85
2017-04-23T12:04:12.243Z,51.89
2017-04-23T12:05:12.396Z,51.90
2017-04-23T12:06:12.949Z,51.78
2017-04-23T12:07:12.644Z,51.07
2017-04-23T12:08:13.161Z,51.72
2017-04-23T12:09:12.785Z,51.80
2017-04-23T12:10:13.330Z,51.86
2017-04-23T12:11:12.750Z,51.90
2017-04-23T12:12:15.140Z,51.81
2017-04-23T12:13:11.932Z,51.40
2017-04-23T12:14:13.380Z,51.74
2017-04-23T12:15:12.413Z,51.85
2017-04-23T12:16:13.148Z,51.88
2017-04-23T12:17:12.414Z,51.86
2017-04-23T12:18:11.561Z,51.84
2017-04-23T12:19:14.862Z,51.91
2017-04-23T12:20:11.813Z,51.84
2017-04-23T12:21:12.754Z,51.85
2017-04-23T12:22:12.908Z,51.86
2017-04-23T12:23:12.988Z,51.85
2017-04-23T12:24:12.164Z,51.80
2017-04-23T12:25:12.225Z,51.78
2017-04-23T12:26:12.538Z,51.75
2017-04-23T12:27:13.550Z,51.83
2017-04-23T12:28:13.184Z,52.09
2017-04-23T12:29:12.814Z,51.95
2017-04-23T12:30:10.942Z,52.00
2017-04-23T12:31:13.692Z,52.08
2017-04-23T12:32:13.367Z,52.29
2017-04-23T12:33:10.484Z,52.46
2017-04-23T12:34:14.572Z,51.61
2017-04-23T12:35:13.361Z,51.70
2017-04-23T12:36:12.676Z,51.65
2017-04-23T12:37:12.672Z,51.62
2017-04-23T12:38:13.759Z,51.51
2017-04-23T12:39:12.940Z,51.80
2017-04-23T12:40:12.714Z,51.57
2017-04-23T12:41:14.522Z,51.76
2017-04-23T12:42:14.370Z,51.76
2017-04-23T12:43:12.433Z,52.11
2017-04-23T12:44:12.591Z,46.73
2017-04-23T12:45:12.617Z,41.49
2017-04-23T12:46:13.681Z,38.41
2017-04-23T12:47:12.967Z,39.87
2017-04-23T12:48:12.660Z,40.94
2017-04-23T12:49:13.351Z,42.56
2017-04-23T12:50:12.494Z,43.65
2017-04-23T12:51:12.503Z,44.94
2017-04-23T12:52:13.462Z,45.40